Time;durP1;ratioP1;P1;durP2;ratioP2;P2;SDS_P1;SDS_P2;PMS_P1;PMS_P2;Temp;Humidity;BMP_temperature;BMP_pressure;BME280_temperature;BME280_humidity;BME280_pressure;Samples;Min_cycle;Max_cycle;Signal;HPM_P1;HPM_P2
2023/02/24 00:02:03;;;;;;;;;;;;;;;3.78;100.00;101543.19;5034515;28;19924;-68
2023/02/24 00:04:31;;;;;;;;;;;;;;;3.72;100.00;101537.44;5019968;28;19935;-68
2023/02/24 00:06:58;;;;;;;;;;;;;;;3.67;100.00;101530.81;5022676;28;20407;-67
2023/02/24 00:09:27;;;;;;;;;;;;;;;3.66;100.00;101540.34;5031984;28;19960;-67
2023/02/24 00:11:56;;;;;;;;;;;;;;;3.66;100.00;101539.50;5032480;28;20358;-67
2023/02/24 00:14:23;;;;;;;;;;;;;;;3.62;100.00;101546.63;5031813;28;20036;-66
2023/02/24 00:16:50;;;;;;;;;;;;;;;3.59;100.00;101532.97;5036968;28;20336;-67
2023/02/24 00:19:18;;;;;;;;;;;;;;;3.54;100.00;101530.63;5041071;28;19931;-67
2023/02/24 00:21:44;;;;;;;;;;;;;;;3.59;100.00;101538.16;5023441;28;19925;-66
2023/02/24 00:24:11;;;;;;;;;;;;;;;3.56;100.00;101534.81;5034920;28;20559;-68
2023/02/24 00:26:37;;;;;;;;;;;;;;;3.54;100.00;101530.63;5016990;28;19990;-67
2023/02/24 00:29:05;;;;;;;;;;;;;;;3.52;100.00;101528.13;5026111;28;19967;-68
2023/02/24 00:31:31;;;;;;;;;;;;;;;3.53;100.00;101521.19;5025368;28;19924;-67
2023/02/24 00:33:58;;;;;;;;;;;;;;;3.53;100.00;101518.59;5027577;28;20410;-67
2023/02/24 00:36:26;;;;;;;;;;;;;;;3.50;100.00;101521.34;5038725;28;19928;-67
2023/02/24 00:38:54;;;;;;;;;;;;;;;3.41;100.00;101514.91;5037793;28;20285;-67
2023/02/24 00:41:22;;;;;;;;;;;;;;;3.38;100.00;101512.47;5021674;28;19929;-67
2023/02/24 00:43:48;;;;;;;;;;;;;;;3.37;100.00;101510.78;5027388;28;19925;-67
2023/02/24 00:46:16;;;;;;;;;;;;;;;3.34;100.00;101505.78;5033253;28;19920;-66
2023/02/24 00:48:46;;;;;;;;;;;;;;;3.33;100.00;101504.09;5025456;28;19929;-67
2023/02/24 00:51:15;;;;;;;;;;;;;;;3.36;100.00;101506.53;5035185;28;19925;-66
2023/02/24 00:53:42;;;;;;;;;;;;;;;3.35;100.00;101503.13;5036210;28;19928;-67
2023/02/24 00:56:12;;;;;;;;;;;;;;;3.33;100.00;101501.50;5019565;28;19924;-66
2023/02/24 00:58:38;;;;;;;;;;;;;;;3.33;100.00;101493.72;5025916;28;19924;-68
2023/02/24 01:01:12;;;;;;;;;;;;;;;3.28;100.00;101493.16;5025102;28;19925;-67
2023/02/24 01:03:39;;;;;;;;;;;;;;;3.20;100.00;101482.38;5029789;28;20009;-67
2023/02/24 01:06:05;;;;;;;;;;;;;;;3.13;100.00;101481.84;5027386;28;20464;-66
2023/02/24 01:08:35;;;;;;;;;;;;;;;3.10;100.00;101476.84;5028804;28;19925;-68
2023/02/24 01:13:48;;;;;;;;;;;;;;;3.07;100.00;101477.81;5027616;28;19925;-66
2023/02/24 01:16:17;;;;;;;;;;;;;;;3.01;100.00;101477.31;5028224;28;20638;-68
2023/02/24 01:18:46;;;;;;;;;;;;;;;2.99;100.00;101471.38;5023429;28;19936;-66
2023/02/24 01:21:13;;;;;;;;;;;;;;;2.97;100.00;101469.69;5035035;28;19927;-66
2023/02/24 01:23:41;;;;;;;;;;;;;;;2.98;100.00;101467.97;5022204;28;19921;-67
2023/02/24 01:26:08;;;;;;;;;;;;;;;2.99;100.00;101466.19;5031396;28;20445;-66
2023/02/24 01:28:36;;;;;;;;;;;;;;;2.96;100.00;101456.84;5038251;28;19932;-66
2023/02/24 01:31:04;;;;;;;;;;;;;;;2.91;100.00;101456.22;5022869;28;19925;-66
2023/02/24 01:33:36;;;;;;;;;;;;;;;2.90;100.00;101457.13;5036037;28;19951;-67
2023/02/24 01:36:08;;;;;;;;;;;;;;;2.89;100.00;101445.94;5026812;28;20250;-66
2023/02/24 01:38:35;;;;;;;;;;;;;;;2.85;100.00;101439.25;5038945;28;19925;-68
2023/02/24 01:41:03;;;;;;;;;;;;;;;2.85;100.00;101430.66;5023360;28;20385;-66
2023/02/24 01:43:31;;;;;;;;;;;;;;;2.78;100.00;101435.28;5037463;28;19924;-66
2023/02/24 01:45:58;;;;;;;;;;;;;;;2.72;100.00;101430.44;5034680;28;19925;-66
2023/02/24 01:48:25;;;;;;;;;;;;;;;2.68;100.00;101426.34;5045226;28;19925;-68
2023/02/24 01:50:52;;;;;;;;;;;;;;;2.69;100.00;101425.44;5031766;28;20001;-67
2023/02/24 01:53:18;;;;;;;;;;;;;;;2.67;100.00;101417.75;5032847;28;19921;-66
2023/02/24 01:55:49;;;;;;;;;;;;;;;2.58;100.00;101415.63;5040092;28;19925;-66
2023/02/24 01:58:19;;;;;;;;;;;;;;;2.62;100.00;101411.13;5032845;28;19924;-66
2023/02/24 02:00:46;;;;;;;;;;;;;;;2.54;100.00;101403.75;5033874;28;20370;-67
2023/02/24 02:03:23;;;;;;;;;;;;;;;2.55;100.00;101388.16;5028868;28;19920;-65
2023/02/24 02:05:50;;;;;;;;;;;;;;;2.56;100.00;101388.97;5014790;28;19921;-66
2023/02/24 02:08:18;;;;;;;;;;;;;;;2.50;100.00;101384.94;5041521;28;19921;-65
2023/02/24 02:10:44;;;;;;;;;;;;;;;2.50;100.00;101376.34;5009595;28;19931;-66
2023/02/24 02:13:19;;;;;;;;;;;;;;;2.48;100.00;101373.00;5030929;28;20062;-66
2023/02/24 02:15:55;;;;;;;;;;;;;;;2.46;100.00;101370.50;5027184;28;19921;-66
2023/02/24 02:18:33;;;;;;;;;;;;;;;2.40;100.00;101365.63;5025875;28;20377;-68
2023/02/24 02:21:02;;;;;;;;;;;;;;;2.40;100.00;101363.03;5035124;28;20423;-66
2023/02/24 02:23:44;;;;;;;;;;;;;;;2.44;100.00;101358.56;5051226;28;19970;-67
2023/02/24 02:26:40;;;;;;;;;;;;;;;2.44;100.00;101364.56;5027061;28;19925;-66
2023/02/24 02:29:30;;;;;;;;;;;;;;;2.42;100.00;101358.63;5032506;28;20344;-67
2023/02/24 02:32:12;;;;;;;;;;;;;;;2.40;100.00;101350.09;5022237;28;19921;-67
2023/02/24 02:34:52;;;;;;;;;;;;;;;2.40;100.00;101352.69;5030164;28;20369;-66
2023/02/24 02:37:25;;;;;;;;;;;;;;;2.45;100.00;101345.53;5025676;28;20428;-68
2023/02/24 02:40:19;;;;;;;;;;;;;;;2.41;100.00;101346.63;5037896;28;19983;-66
2023/02/24 02:42:48;;;;;;;;;;;;;;;2.38;100.00;101346.75;5029720;28;19944;-67
2023/02/24 02:45:21;;;;;;;;;;;;;;;2.35;100.00;101337.41;5021679;28;19936;-68
2023/02/24 02:47:53;;;;;;;;;;;;;;;2.36;100.00;101338.22;5034520;28;20007;-68
2023/02/24 02:50:26;;;;;;;;;;;;;;;2.31;100.00;101325.53;5026033;28;19929;-67
2023/02/24 02:52:56;;;;;;;;;;;;;;;2.28;100.00;101320.50;5036981;28;19928;-66
2023/02/24 02:55:22;;;;;;;;;;;;;;;2.26;100.00;101311.16;5030336;28;19927;-66
2023/02/24 02:57:50;;;;;;;;;;;;;;;2.29;100.00;101311.81;5045296;28;19924;-65
2023/02/24 03:00:22;;;;;;;;;;;;;;;2.27;100.00;101312.81;5017448;28;19921;-66
2023/02/24 03:02:50;;;;;;;;;;;;;;;2.28;100.00;101306.75;5030548;28;19960;-66
2023/02/24 03:05:20;;;;;;;;;;;;;;;2.26;100.00;101309.41;5036466;28;19921;-66
2023/02/24 03:07:50;;;;;;;;;;;;;;;2.12;100.00;101298.94;5030017;28;19960;-67
2023/02/24 03:10:21;;;;;;;;;;;;;;;2.13;100.00;101300.59;5033913;28;19920;-66
2023/02/24 03:12:50;;;;;;;;;;;;;;;2.13;100.00;101298.84;5024971;28;19944;-70
2023/02/24 03:15:19;;;;;;;;;;;;;;;2.14;100.00;101289.34;5036093;28;19921;-70
2023/02/24 03:17:48;;;;;;;;;;;;;;;2.12;100.00;101294.59;5032999;28;19921;-70
2023/02/24 03:20:21;;;;;;;;;;;;;;;2.14;100.00;101286.75;5050401;28;19921;-70
2023/02/24 03:22:50;;;;;;;;;;;;;;;2.13;100.00;101282.50;5045225;28;19975;-70
2023/02/24 03:25:23;;;;;;;;;;;;;;;2.07;100.00;101278.47;5041752;28;19927;-70
2023/02/24 03:27:52;;;;;;;;;;;;;;;2.08;100.00;101284.47;5046154;28;19921;-70
2023/02/24 03:30:20;;;;;;;;;;;;;;;2.04;100.00;101272.59;5026012;28;20143;-70
2023/02/24 03:32:56;;;;;;;;;;;;;;;2.08;100.00;101276.72;5050862;28;19944;-70
2023/02/24 03:35:24;;;;;;;;;;;;;;;2.04;100.00;101275.19;5044609;28;19929;-70
2023/02/24 03:37:54;;;;;;;;;;;;;;;2.03;100.00;101269.19;5051096;28;19963;-70
2023/02/24 03:40:21;;;;;;;;;;;;;;;2.05;100.00;101261.34;5031163;28;20311;-70
2023/02/24 03:42:55;;;;;;;;;;;;;;;2.02;100.00;101264.09;5047222;28;19925;-70
2023/02/24 03:45:23;;;;;;;;;;;;;;;2.03;100.00;101268.38;5038922;28;19936;-70
2023/02/24 03:47:49;;;;;;;;;;;;;;;2.04;100.00;101263.13;5037551;28;20012;-66
2023/02/24 03:50:17;;;;;;;;;;;;;;;2.04;100.00;101263.13;5058196;28;19925;-66
2023/02/24 03:52:56;;;;;;;;;;;;;;;2.00;100.00;101261.59;5023483;28;19990;-66
2023/02/24 03:55:22;;;;;;;;;;;;;;;1.96;100.00;101258.34;5025525;28;20294;-66
2023/02/24 03:57:54;;;;;;;;;;;;;;;1.96;100.00;101254.91;5035439;28;20012;-66
2023/02/24 04:00:34;;;;;;;;;;;;;;;2.02;100.00;101256.31;5045667;28;20360;-68
2023/02/24 04:03:24;;;;;;;;;;;;;;;1.98;100.00;101253.09;5024080;28;19964;-66
2023/02/24 04:05:58;;;;;;;;;;;;;;;1.91;100.00;101247.38;4975384;28;19924;-67
2023/02/24 04:08:28;;;;;;;;;;;;;;;1.90;100.00;101248.31;5024116;28;20501;-66
2023/02/24 04:10:58;;;;;;;;;;;;;;;1.88;100.00;101252.75;5031551;28;19927;-65
2023/02/24 04:13:34;;;;;;;;;;;;;;;1.88;100.00;101244.97;5026925;28;19975;-65
2023/02/24 04:16:03;;;;;;;;;;;;;;;1.88;100.00;101246.69;5039250;28;19925;-66
2023/02/24 04:18:31;;;;;;;;;;;;;;;1.83;100.00;101243.53;5031780;28;19921;-67
2023/02/24 04:20:58;;;;;;;;;;;;;;;1.83;100.00;101240.94;5014455;28;19924;-65
2023/02/24 04:23:45;;;;;;;;;;;;;;;1.84;100.00;101234.84;5043982;28;19921;-65
2023/02/24 04:26:14;;;;;;;;;;;;;;;1.86;100.00;101243.34;5035034;28;20851;-66
2023/02/24 04:28:41;;;;;;;;;;;;;;;1.89;100.00;101235.44;5033470;28;20015;-65
2023/02/24 04:31:16;;;;;;;;;;;;;;;1.95;100.00;101230.78;5040545;28;19979;-66
2023/02/24 04:33:43;;;;;;;;;;;;;;;1.96;100.00;101227.28;5034146;28;19975;-66
2023/02/24 04:36:11;;;;;;;;;;;;;;;2.02;100.00;101220.97;5040778;28;20348;-66
2023/02/24 04:38:38;;;;;;;;;;;;;;;2.06;100.00;101219.88;5040578;28;19925;-68
2023/02/24 04:41:04;;;;;;;;;;;;;;;2.07;100.00;101210.34;5027532;28;20368;-65
2023/02/24 04:43:31;;;;;;;;;;;;;;;2.09;100.00;101211.09;5026169;28;19925;-67
2023/02/24 04:45:57;;;;;;;;;;;;;;;2.11;100.00;101217.03;5035580;28;20337;-68
2023/02/24 04:48:23;;;;;;;;;;;;;;;2.03;100.00;101203.69;5027170;28;19921;-66
2023/02/24 04:50:53;;;;;;;;;;;;;;;2.07;100.00;101200.00;5015205;28;20168;-67
2023/02/24 04:53:25;;;;;;;;;;;;;;;2.04;100.00;101190.66;5032894;28;19921;-65
2023/02/24 04:55:53;;;;;;;;;;;;;;;2.09;100.00;101193.00;5024169;28;19931;-67
2023/02/24 04:58:20;;;;;;;;;;;;;;;2.05;100.00;101183.72;5026484;28;19920;-66
2023/02/24 05:00:47;;;;;;;;;;;;;;;1.95;100.00;101189.38;5032575;28;19925;-67
2023/02/24 05:03:15;;;;;;;;;;;;;;;1.91;100.00;101177.53;5025184;28;20397;-66
2023/02/24 05:05:50;;;;;;;;;;;;;;;1.94;100.00;101174.78;5019082;28;19924;-67
2023/02/24 05:08:17;;;;;;;;;;;;;;;1.93;100.00;101172.28;5027299;28;19959;-65
2023/02/24 05:10:47;;;;;;;;;;;;;;;1.95;100.00;101165.28;5027838;28;19921;-66
2023/02/24 05:13:15;;;;;;;;;;;;;;;1.99;100.00;101166.78;5011633;28;19921;-65
2023/02/24 05:15:43;;;;;;;;;;;;;;;2.02;100.00;101166.63;5029197;28;19924;-68
2023/02/24 05:18:13;;;;;;;;;;;;;;;2.02;100.00;101151.09;5026027;28;19928;-67
2023/02/24 05:23:30;;;;;;;;;;;;;;;1.94;100.00;101150.66;5032373;28;19972;-66
2023/02/24 05:25:57;;;;;;;;;;;;;;;1.94;100.00;101143.75;5038344;28;19960;-66
2023/02/24 05:28:24;;;;;;;;;;;;;;;1.91;100.00;101136.13;5033622;28;20440;-65
2023/02/24 05:30:52;;;;;;;;;;;;;;;1.91;100.00;101137.91;5028832;28;19928;-67
2023/02/24 05:33:22;;;;;;;;;;;;;;;1.95;100.00;101129.06;5024367;28;19951;-66
2023/02/24 05:35:49;;;;;;;;;;;;;;;1.95;100.00;101126.47;5024066;28;20423;-67
2023/02/24 05:38:18;;;;;;;;;;;;;;;1.97;100.00;101109.94;5030608;28;19968;-66
2023/02/24 05:40:46;;;;;;;;;;;;;;;1.97;100.00;101103.94;5035399;28;20388;-65
2023/02/24 05:43:18;;;;;;;;;;;;;;;2.00;100.00;101097.75;5028128;28;19931;-67
2023/02/24 05:45:44;;;;;;;;;;;;;;;2.01;100.00;101105.41;5038089;28;19956;-66
2023/02/24 05:48:13;;;;;;;;;;;;;;;2.05;100.00;101088.81;5032730;28;20429;-66
2023/02/24 05:50:44;;;;;;;;;;;;;;;2.08;100.00;101086.06;5035187;28;20381;-66
2023/02/24 05:53:11;;;;;;;;;;;;;;;2.05;100.00;101085.41;5037826;28;19929;-66
2023/02/24 05:55:38;;;;;;;;;;;;;;;2.05;100.00;101077.63;5027631;28;19929;-66
2023/02/24 05:58:06;;;;;;;;;;;;;;;2.13;100.00;101071.09;5025547;28;19921;-66
2023/02/24 06:00:32;;;;;;;;;;;;;;;2.15;100.00;101064.06;5033199;28;20028;-67
2023/02/24 06:03:07;;;;;;;;;;;;;;;2.15;100.00;101063.25;5038114;28;20015;-66
2023/02/24 06:05:34;;;;;;;;;;;;;;;2.19;100.00;101069.91;5037386;28;19920;-66
2023/02/24 06:08:04;;;;;;;;;;;;;;;2.18;100.00;101066.50;5032374;28;19974;-66
2023/02/24 06:10:33;;;;;;;;;;;;;;;2.22;100.00;101056.00;5024356;28;19929;-66
2023/02/24 06:13:00;;;;;;;;;;;;;;;2.16;100.00;101054.59;5026738;28;19921;-66
2023/02/24 06:15:27;;;;;;;;;;;;;;;2.16;100.00;101044.22;5029438;28;19925;-67
2023/02/24 06:17:59;;;;;;;;;;;;;;;2.22;100.00;101040.47;5040479;28;19925;-67
2023/02/24 06:20:27;;;;;;;;;;;;;;;2.16;100.00;101037.28;5028534;28;19921;-67
2023/02/24 06:22:56;;;;;;;;;;;;;;;2.18;100.00;101027.69;5035178;28;19921;-68
2023/02/24 06:25:24;;;;;;;;;;;;;;;2.18;100.00;101030.28;5020796;28;20625;-66
2023/02/24 06:27:53;;;;;;;;;;;;;;;2.15;100.00;101039.97;5009099;28;19925;-68
2023/02/24 06:30:21;;;;;;;;;;;;;;;2.17;100.00;101036.34;5041112;28;19955;-66
2023/02/24 06:32:48;;;;;;;;;;;;;;;2.21;100.00;101031.84;5013367;28;19931;-67
2023/02/24 06:35:15;;;;;;;;;;;;;;;2.23;100.00;101027.41;5036512;28;19928;-66
2023/02/24 06:37:42;;;;;;;;;;;;;;;2.23;100.00;101030.00;5034465;28;19924;-67
2023/02/24 06:40:14;;;;;;;;;;;;;;;2.21;100.00;101023.25;5028103;28;19940;-68
2023/02/24 06:42:45;;;;;;;;;;;;;;;2.22;100.00;101018.00;5041411;28;19925;-67
2023/02/24 06:45:12;;;;;;;;;;;;;;;2.22;100.00;101009.41;5029292;28;19925;-66
2023/02/24 06:47:38;;;;;;;;;;;;;;;2.25;100.00;101004.84;5041139;28;20328;-67
2023/02/24 06:50:05;;;;;;;;;;;;;;;2.24;100.00;100999.78;5033770;28;19978;-66
2023/02/24 06:52:32;;;;;;;;;;;;;;;2.31;100.00;100999.34;5033970;28;20811;-67
2023/02/24 06:54:59;;;;;;;;;;;;;;;2.37;100.00;100998.13;5023501;28;20012;-67
2023/02/24 06:57:26;;;;;;;;;;;;;;;2.38;100.00;100997.22;5048237;28;19920;-66
2023/02/24 06:59:54;;;;;;;;;;;;;;;2.45;100.00;101002.88;5033216;28;19995;-67
2023/02/24 07:02:24;;;;;;;;;;;;;;;2.47;100.00;100995.84;5029345;28;20019;-69
2023/02/24 07:04:54;;;;;;;;;;;;;;;2.51;100.00;100990.41;5038387;28;19988;-66
2023/02/24 07:07:21;;;;;;;;;;;;;;;2.54;100.00;100997.16;5026034;28;19928;-67
2023/02/24 07:09:47;;;;;;;;;;;;;;;2.53;100.00;100992.94;5038021;28;20581;-67
2023/02/24 07:12:19;;;;;;;;;;;;;;;2.56;100.00;100993.56;5034384;28;19928;-66
2023/02/24 07:14:49;;;;;;;;;;;;;;;2.63;100.00;100981.09;5034486;28;19921;-66
2023/02/24 07:17:17;;;;;;;;;;;;;;;2.66;100.00;100975.72;5041688;28;20023;-66
2023/02/24 07:19:44;;;;;;;;;;;;;;;2.73;100.00;100973.59;5032971;28;19924;-68
2023/02/24 07:22:13;;;;;;;;;;;;;;;2.68;100.00;100976.44;5031433;28;20377;-67
2023/02/24 07:24:44;;;;;;;;;;;;;;;2.68;100.00;100975.63;5026461;28;19921;-67
2023/02/24 07:27:20;;;;;;;;;;;;;;;2.74;100.00;100970.06;5042010;28;19925;-67
2023/02/24 07:29:48;;;;;;;;;;;;;;;2.79;100.00;100962.88;5023903;28;19921;-67
2023/02/24 07:32:17;;;;;;;;;;;;;;;2.80;100.00;100961.09;5040323;28;19928;-67
2023/02/24 07:34:44;;;;;;;;;;;;;;;2.84;100.00;100950.44;5028327;28;19928;-68
2023/02/24 07:37:11;;;;;;;;;;;;;;;2.88;100.00;100956.28;5040224;28;19947;-66
2023/02/24 07:39:38;;;;;;;;;;;;;;;2.86;100.00;100951.22;5036949;28;19921;-66
2023/02/24 07:42:06;;;;;;;;;;;;;;;2.89;100.00;100947.59;5014253;28;20437;-68
2023/02/24 07:44:32;;;;;;;;;;;;;;;2.84;100.00;100950.44;5040533;28;19925;-67
2023/02/24 07:46:59;;;;;;;;;;;;;;;2.88;100.00;100953.69;5020190;28;19925;-67
2023/02/24 07:49:26;;;;;;;;;;;;;;;2.90;100.00;100947.50;5039502;28;20019;-67
2023/02/24 07:51:56;;;;;;;;;;;;;;;2.94;100.00;100950.72;5032731;28;19932;-67
2023/02/24 07:54:24;;;;;;;;;;;;;;;2.96;100.00;100948.91;5040870;28;19947;-68
2023/02/24 07:56:57;;;;;;;;;;;;;;;3.02;100.00;100932.13;5032634;28;19920;-66
2023/02/24 07:59:26;;;;;;;;;;;;;;;3.03;100.00;100936.38;5002458;28;19975;-66
2023/02/24 08:01:54;;;;;;;;;;;;;;;3.09;100.00;100936.81;5033182;28;19932;-68
2023/02/24 08:04:22;;;;;;;;;;;;;;;3.17;100.00;100931.16;5022278;28;19947;-68
2023/02/24 08:06:55;;;;;;;;;;;;;;;3.16;100.00;100919.97;5036544;28;19928;-67
2023/02/24 08:10:12;;;;;;;;;;;;;;;3.17;100.00;100921.66;5015507;28;19956;-68
2023/02/24 08:12:14;;;;;;;;;;;;;;;3.19;100.00;100921.53;5037926;28;20857;-67
2023/02/24 08:14:43;;;;;;;;;;;;;;;3.19;100.00;100918.94;5041919;28;19928;-67
2023/02/24 08:17:11;;;;;;;;;;;;;;;3.20;100.00;100909.44;5029321;28;20012;-67
2023/02/24 08:19:40;;;;;;;;;;;;;;;3.25;100.00;100915.13;5031252;28;19928;-66
2023/02/24 08:22:19;;;;;;;;;;;;;;;3.25;100.00;100908.19;5030492;28;19935;-65
2023/02/24 08:24:51;;;;;;;;;;;;;;;3.32;100.00;100903.47;5035496;28;20015;-65
2023/02/24 08:27:22;;;;;;;;;;;;;;;3.33;100.00;100905.09;5037802;28;19999;-65
2023/02/24 08:29:58;;;;;;;;;;;;;;;3.35;100.00;100893.72;5023594;28;19924;-66
2023/02/24 08:32:35;;;;;;;;;;;;;;;3.46;100.00;100885.25;5012899;28;19927;-65
2023/02/24 08:35:03;;;;;;;;;;;;;;;3.49;100.00;100887.66;5013588;28;20366;-69
2023/02/24 08:37:45;;;;;;;;;;;;;;;3.52;100.00;100892.63;5028723;28;19958;-68
2023/02/24 08:43:29;;;;;;;;;;;;;;;3.52;100.00;100882.25;5024569;28;19935;-68
2023/02/24 08:45:59;;;;;;;;;;;;;;;3.58;100.00;100868.06;5025681;28;19932;-65
2023/02/24 08:48:36;;;;;;;;;;;;;;;3.51;100.00;100866.81;5041380;28;19925;-64
2023/02/24 08:51:06;;;;;;;;;;;;;;;3.58;100.00;100865.47;5012606;28;19928;-68
2023/02/24 08:53:32;;;;;;;;;;;;;;;3.60;100.00;100857.59;5031045;28;20375;-67
2023/02/24 08:56:08;;;;;;;;;;;;;;;3.69;100.00;100864.78;5029560;28;20667;-66
2023/02/24 08:58:39;;;;;;;;;;;;;;;3.69;100.00;100857.00;5033552;28;19952;-66
2023/02/24 09:01:17;;;;;;;;;;;;;;;3.76;100.00;100859.09;5016772;28;20285;-66
2023/02/24 09:03:46;;;;;;;;;;;;;;;3.71;100.00;100842.97;5042076;28;19924;-66
2023/02/24 09:06:15;;;;;;;;;;;;;;;3.74;100.00;100840.19;5038997;28;19928;-66
2023/02/24 09:08:44;;;;;;;;;;;;;;;3.75;100.00;100846.19;5029577;28;19932;-66
2023/02/24 09:11:14;;;;;;;;;;;;;;;3.73;100.00;100850.66;5027392;28;20433;-68
2023/02/24 09:13:51;;;;;;;;;;;;;;;3.72;100.00;100839.47;5020632;28;20707;-66
2023/02/24 09:16:22;;;;;;;;;;;;;;;3.79;100.00;100829.50;5016901;28;19932;-66
2023/02/24 09:22:13;;;;;;;;;;;;;;;3.79;100.00;100832.09;5028894;28;19925;-67
2023/02/24 09:24:38;;;;;;;;;;;;;;;3.82;100.00;100812.88;5024506;28;20622;-66
2023/02/24 09:27:05;;;;;;;;;;;;;;;3.83;100.00;100817.16;5033339;28;19928;-66
2023/02/24 09:29:47;;;;;;;;;;;;;;;3.84;100.00;100808.41;5018667;28;20403;-66
2023/02/24 09:32:21;;;;;;;;;;;;;;;3.82;100.00;100803.31;5007742;28;19925;-67
2023/02/24 09:34:49;;;;;;;;;;;;;;;3.88;100.00;100799.50;5034596;28;20068;-67
2023/02/24 09:37:24;;;;;;;;;;;;;;;3.87;100.00;100790.88;5027003;28;20490;-65
2023/02/24 09:42:31;;;;;;;;;;;;;;;3.91;100.00;100784.56;5022480;28;19928;-67
2023/02/24 09:45:10;;;;;;;;;;;;;;;3.95;100.00;100780.81;5036285;28;20024;-68
2023/02/24 09:47:55;;;;;;;;;;;;;;;3.87;100.00;100771.91;5027624;28;20019;-66
2023/02/24 09:50:45;;;;;;;;;;;;;;;3.94;100.00;100763.59;5038485;28;19928;-67
2023/02/24 09:53:37;;;;;;;;;;;;;;;3.96;100.00;100753.94;5030266;28;19936;-66
2023/02/24 09:56:06;;;;;;;;;;;;;;;3.98;100.00;100756.44;5033316;28;20369;-66
2023/02/24 09:58:39;;;;;;;;;;;;;;;4.09;100.00;100755.69;5031540;28;19973;-66
2023/02/24 10:01:22;;;;;;;;;;;;;;;4.10;100.00;100752.16;5037179;28;20008;-66
2023/02/24 10:04:03;;;;;;;;;;;;;;;4.08;100.00;100752.25;5029374;28;19925;-68
2023/02/24 10:06:46;;;;;;;;;;;;;;;4.19;100.00;100748.09;5038798;28;20626;-66
2023/02/24 10:09:25;;;;;;;;;;;;;;;4.18;100.00;100749.84;5028451;28;20299;-67
2023/02/24 10:12:03;;;;;;;;;;;;;;;4.19;100.00;100746.31;5026856;28;20409;-67
2023/02/24 10:14:37;;;;;;;;;;;;;;;4.23;100.00;100729.56;5040361;28;20266;-66
2023/02/24 10:17:24;;;;;;;;;;;;;;;4.22;100.00;100727.94;5028313;28;19925;-66
2023/02/24 10:20:12;;;;;;;;;;;;;;;4.31;100.00;100729.88;5037838;28;19968;-66
2023/02/24 10:22:49;;;;;;;;;;;;;;;4.39;100.00;100724.16;5014973;28;19928;-68
2023/02/24 10:25:22;;;;;;;;;;;;;;;4.42;100.00;100723.91;5036231;28;19927;-67
2023/02/24 10:27:57;;;;;;;;;;;;;;;4.38;100.00;100727.69;5033002;28;20259;-66
2023/02/24 10:30:42;;;;;;;;;;;;;;;4.40;100.00;100725.78;5044663;28;19924;-66
2023/02/24 10:33:33;;;;;;;;;;;;;;;4.42;100.00;100710.94;5026272;28;19920;-65
2023/02/24 10:36:03;;;;;;;;;;;;;;;4.44;100.00;100708.22;5028025;28;19925;-67
2023/02/24 10:38:31;;;;;;;;;;;;;;;4.45;100.00;100709.88;5023994;28;20044;-66
2023/02/24 10:40:58;;;;;;;;;;;;;;;4.44;100.00;100719.44;5036854;28;19944;-65
2023/02/24 10:43:32;;;;;;;;;;;;;;;4.46;100.00;100704.56;5030229;28;19925;-66
2023/02/24 10:46:15;;;;;;;;;;;;;;;4.44;100.00;100721.22;5021370;28;19921;-66
2023/02/24 10:48:50;;;;;;;;;;;;;;;4.50;100.00;100715.59;5036557;28;20214;-67
2023/02/24 10:51:29;;;;;;;;;;;;;;;4.56;100.00;100713.38;5020427;28;19944;-65
2023/02/24 10:54:21;;;;;;;;;;;;;;;4.56;100.00;100702.16;5034695;28;20010;-65
2023/02/24 10:57:14;;;;;;;;;;;;;;;4.55;100.00;100700.50;5021477;28;20381;-65
2023/02/24 11:00:19;;;;;;;;;;;;;;;4.57;100.00;100693.44;5030439;28;19928;-66
2023/02/24 11:02:56;;;;;;;;;;;;;;;4.55;100.00;100690.94;5019795;28;19948;-68
2023/02/24 11:05:37;;;;;;;;;;;;;;;4.57;100.00;100693.44;5012989;28;20034;-67
2023/02/24 11:08:06;;;;;;;;;;;;;;;4.64;100.00;100683.41;5028942;28;20087;-66
2023/02/24 11:10:51;;;;;;;;;;;;;;;4.64;100.00;100686.84;5032484;28;20042;-67
2023/02/24 11:18:53;;;;;;;;;;;;;;;4.67;100.00;100668.44;5015242;28;19961;-68
2023/02/24 11:21:21;;;;;;;;;;;;;;;4.70;100.00;100663.00;5027185;28;19925;-65
2023/02/24 11:23:50;;;;;;;;;;;;;;;4.75;100.00;100663.50;5025479;28;19921;-65
2023/02/24 11:26:33;;;;;;;;;;;;;;;4.74;100.00;100651.47;5029507;28;19921;-64
2023/02/24 11:29:16;;;;;;;;;;;;;;;4.72;100.00;100637.75;5029397;28;19925;-66
2023/02/24 11:32:01;;;;;;;;;;;;;;;4.78;100.00;100633.03;5020181;28;20899;-66
2023/02/24 11:34:48;;;;;;;;;;;;;;;4.83;100.00;100651.72;5027534;28;19929;-66
2023/02/24 11:37:36;;;;;;;;;;;;;;;4.88;100.00;100628.81;5024719;28;19944;-66
2023/02/24 11:40:07;;;;;;;;;;;;;;;4.92;100.00;100625.88;5031541;28;19925;-67
2023/02/24 11:43:02;;;;;;;;;;;;;;;4.97;100.00;100622.94;5022129;28;19925;-66
2023/02/24 11:45:47;;;;;;;;;;;;;;;5.04;100.00;100610.31;4997047;28;19955;-66
2023/02/24 11:48:27;;;;;;;;;;;;;;;5.07;100.00;100623.88;5020635;28;20328;-66
2023/02/24 11:51:00;;;;;;;;;;;;;;;5.06;100.00;100609.25;5027436;28;19924;-66
2023/02/24 11:53:27;;;;;;;;;;;;;;;5.10;100.00;100605.47;5019464;28;20287;-67
2023/02/24 11:55:59;;;;;;;;;;;;;;;5.11;100.00;100604.50;5032962;28;19999;-67
2023/02/24 11:58:46;;;;;;;;;;;;;;;5.09;100.00;100605.56;5028561;28;19956;-68
2023/02/24 12:01:18;;;;;;;;;;;;;;;5.04;100.00;100594.72;5025221;28;19921;-66
2023/02/24 12:04:00;;;;;;;;;;;;;;;5.06;100.00;100585.84;5029070;28;20024;-68
2023/02/24 12:06:37;;;;;;;;;;;;;;;5.08;100.00;100583.13;5020618;28;20340;-66
2023/02/24 12:09:10;;;;;;;;;;;;;;;5.11;100.00;100568.09;5030030;28;19928;-66
2023/02/24 12:11:52;;;;;;;;;;;;;;;5.27;100.00;100577.34;5027612;28;19925;-66
2023/02/24 12:14:36;;;;;;;;;;;;;;;5.30;100.00;100567.53;5030057;28;19921;-67
2023/02/24 12:17:10;;;;;;;;;;;;;;;5.29;100.00;100565.88;5022139;28;19932;-67
2023/02/24 12:19:56;;;;;;;;;;;;;;;5.28;100.00;100564.22;5035353;28;19928;-65
2023/02/24 12:22:30;;;;;;;;;;;;;;;5.31;100.00;100561.41;5036529;28;19924;-69
2023/02/24 12:24:57;;;;;;;;;;;;;;;5.36;100.00;100558.44;5040032;28;19933;-68
2023/02/24 12:27:41;;;;;;;;;;;;;;;5.35;100.00;100562.81;5030186;28;19968;-67
2023/02/24 12:30:47;;;;;;;;;;;;;;;5.44;100.00;100563.03;5013345;28;19932;-67
2023/02/24 12:33:42;;;;;;;;;;;;;;;5.50;100.00;100552.97;5032253;28;19924;-67
2023/02/24 12:36:15;;;;;;;;;;;;;;;5.49;100.00;100559.13;5029175;28;19925;-67
2023/02/24 12:38:51;;;;;;;;;;;;;;;5.53;100.00;100557.94;5025624;28;20713;-67
2023/02/24 12:41:18;;;;;;;;;;;;;;;5.62;100.00;100547.75;5037046;28;19956;-66
2023/02/24 12:43:49;;;;;;;;;;;;;;;5.63;100.00;100532.03;5036999;28;19978;-67
2023/02/24 12:46:19;;;;;;;;;;;;;;;5.59;100.00;100538.44;5019048;28;19990;-67
2023/02/24 12:48:54;;;;;;;;;;;;;;;5.59;100.00;100529.81;5043692;28;20011;-68
2023/02/24 12:51:20;;;;;;;;;;;;;;;5.65;100.00;100531.91;5037262;28;19925;-67
2023/02/24 12:53:47;;;;;;;;;;;;;;;5.70;100.00;100528.00;5032356;28;19931;-67
2023/02/24 12:56:23;;;;;;;;;;;;;;;5.75;100.00;100527.63;5030443;28;20023;-67
2023/02/24 12:58:51;;;;;;;;;;;;;;;5.78;100.00;100529.97;5038131;28;20409;-66
2023/02/24 13:01:18;;;;;;;;;;;;;;;5.81;100.00;100526.31;5038254;28;19952;-67
2023/02/24 13:04:03;;;;;;;;;;;;;;;5.89;100.00;100523.91;5045510;28;20205;-67
2023/02/24 13:06:48;;;;;;;;;;;;;;;5.98;100.00;100518.00;5047209;28;19931;-67
2023/02/24 13:09:21;;;;;;;;;;;;;;;6.14;100.00;100521.00;5026654;28;19921;-67
2023/02/24 13:11:54;;;;;;;;;;;;;;;6.27;100.00;100505.22;5047514;28;19921;-67
2023/02/24 13:14:27;;;;;;;;;;;;;;;6.41;100.00;100498.00;5043671;28;19925;-64
2023/02/24 13:17:16;;;;;;;;;;;;;;;6.45;100.00;100491.59;5034924;28;19932;-66
2023/02/24 13:19:43;;;;;;;;;;;;;;;6.54;100.00;100490.84;5048438;28;19947;-68
2023/02/24 13:22:12;;;;;;;;;;;;;;;6.62;100.00;100484.97;5045929;28;19925;-69